createdAt,value
2018-07-31T00:03:06.174Z,27.8
2018-07-31T00:13:20.188Z,28.0
2018-07-31T00:24:05.803Z,30.7
2018-07-31T00:34:21.575Z,35.5
2018-07-31T00:44:35.507Z,30.9
2018-07-31T00:54:49.668Z,33.7
2018-07-31T01:05:03.746Z,32.2
2018-07-31T01:15:14.984Z,35.2
2018-07-31T01:25:30.420Z,34.9
2018-07-31T01:35:46.447Z,31.0
2018-07-31T01:46:00.943Z,30.9
2018-07-31T01:56:12.443Z,29.6
2018-07-31T02:06:57.884Z,34.6
2018-07-31T02:17:43.685Z,41.5
2018-07-31T02:27:58.065Z,29.4
2018-07-31T02:38:11.228Z,29.0
2018-07-31T02:48:25.793Z,29.8
2018-07-31T02:58:39.605Z,30.3
2018-07-31T03:08:53.636Z,29.2
2018-07-31T03:19:39.440Z,38.5
2018-07-31T03:30:26.839Z,42.8
2018-07-31T03:40:42.125Z,31.0
2018-07-31T03:50:56.552Z,28.6
2018-07-31T04:01:10.723Z,28.6
2018-07-31T04:11:24.932Z,27.6
2018-07-31T04:21:39.180Z,39.7
2018-07-31T04:31:53.491Z,29.1
2018-07-31T04:42:07.696Z,29.4
2018-07-31T04:52:21.591Z,30.3
2018-07-31T05:02:35.989Z,29.3
2018-07-31T05:12:50.033Z,29.2
2018-07-31T05:23:04.393Z,32.1
2018-07-31T05:33:18.623Z,36.7
2018-07-31T05:43:32.865Z,35.4
2018-07-31T05:53:47.195Z,30.5
2018-07-31T06:04:01.232Z,32.7
2018-07-31T06:14:15.573Z,32.8
2018-07-31T06:24:29.866Z,31.9
2018-07-31T06:34:44.721Z,31.3
2018-07-31T06:44:58.307Z,35.4
2018-07-31T06:55:12.486Z,30.8
2018-07-31T07:05:27.352Z,32.1
2018-07-31T07:15:41.066Z,39.2
2018-07-31T07:25:55.231Z,30.0
2018-07-31T07:36:09.516Z,34.1
2018-07-31T07:46:23.864Z,35.6
2018-07-31T07:56:37.849Z,28.0
2018-07-31T08:06:52.168Z,27.3
2018-07-31T08:17:06.318Z,27.0
2018-07-31T08:27:19.465Z,25.3
2018-07-31T08:37:32.782Z,25.3
2018-07-31T08:47:47.181Z,24.2
2018-07-31T08:58:01.396Z,25.8
2018-07-31T09:08:16.161Z,24.3
2018-07-31T09:18:27.937Z,24.0
2018-07-31T09:28:42.191Z,23.1
2018-07-31T09:38:56.640Z,22.3
2018-07-31T09:49:10.920Z,22.7
2018-07-31T09:59:25.281Z,21.5
2018-07-31T10:09:37.415Z,21.9
2018-07-31T10:19:51.904Z,22.0
2018-07-31T10:30:37.551Z,22.0
2018-07-31T10:41:23.440Z,22.2
2018-07-31T10:52:14.750Z,19.8
2018-07-31T11:02:28.993Z,19.9
2018-07-31T11:13:34.718Z,19.5
2018-07-31T11:23:49.120Z,18.3
2018-07-31T11:34:06.348Z,18.9
2018-07-31T11:44:21.170Z,19.9
2018-07-31T11:54:47.459Z,19.8
2018-07-31T12:05:56.437Z,19.1
2018-07-31T12:16:10.632Z,22.5
2018-07-31T12:26:24.792Z,20.3
2018-07-31T12:36:38.980Z,21.2
2018-07-31T12:48:46.141Z,28.7
2018-07-31T13:00:07.439Z,22.7
2018-07-31T13:42:45.699Z,20.5
2018-07-31T14:07:06.161Z,21.4
2018-07-31T14:17:17.480Z,24.8
2018-07-31T14:28:03.029Z,20.7
2018-07-31T14:38:47.974Z,20.5
2018-07-31T14:48:59.347Z,20.9
2018-07-31T14:59:13.489Z,22.0
2018-07-31T15:09:30.327Z,20.4
2018-07-31T15:20:15.630Z,21.8
2018-07-31T15:30:51.055Z,20.8
2018-07-31T15:41:02.377Z,27.7
2018-07-31T15:51:16.467Z,23.0
2018-07-31T16:01:31.880Z,24.0
2018-07-31T16:11:47.677Z,21.9
2018-07-31T16:21:59.377Z,40.2
2018-07-31T16:32:13.530Z,23.0
2018-07-31T16:42:27.425Z,23.7
2018-07-31T16:52:41.827Z,23.3
2018-07-31T17:02:56.118Z,30.1
2018-07-31T17:13:08.033Z,24.2
2018-07-31T17:23:24.670Z,29.4
2018-07-31T17:33:38.555Z,25.7
2018-07-31T17:43:53.695Z,23.8
2018-07-31T17:54:05.283Z,26.6
2018-07-31T18:04:19.260Z,24.9
2018-07-31T18:14:30.692Z,24.9
2018-07-31T18:27:41.217Z,23.9
2018-07-31T19:00:41.092Z,25.3
2018-07-31T19:21:57.146Z,25.0
2018-07-31T19:43:14.517Z,26.2
2018-07-31T19:54:00.014Z,26.0
2018-07-31T20:04:14.633Z,26.6
2018-07-31T20:14:59.696Z,27.6
2018-07-31T20:25:44.483Z,27.8
2018-07-31T20:35:57.892Z,28.5
2018-07-31T20:46:12.189Z,30.1
2018-07-31T20:56:26.070Z,26.8
2018-07-31T21:06:40.515Z,24.8
2018-07-31T21:16:54.806Z,26.6
2018-07-31T21:27:40.687Z,26.6
2018-07-31T21:38:26.328Z,26.6
2018-07-31T21:49:12.063Z,26.6
2018-07-31T21:59:58.224Z,26.6
2018-07-31T22:10:12.303Z,31.7
2018-07-31T22:20:26.859Z,27.1
2018-07-31T22:30:40.960Z,27.1
2018-07-31T22:40:55.441Z,31.2
2018-07-31T22:51:40.302Z,28.0
2018-07-31T23:01:53.999Z,27.5
2018-07-31T23:12:08.051Z,26.3
2018-07-31T23:22:53.589Z,31.5
2018-07-31T23:33:07.346Z,27.1
2018-07-31T23:43:21.886Z,35.9
2018-07-31T23:53:35.716Z,26.6
